Terminal Aerodrome Forecast
Issued by NWS Memphis, TN

Home | Current Version | Previous Version | Text Only | Print | Product List | Glossary On
Versions: 1 2 3 4 5 6 7 8 9 10 11 12 13 14 15 16 17 18
000
FTUS44 KMEG 310900 AAA
TAFMKL
TAF AMD
KMKL 310913Z 3109/0106 00000KT 3SM BR FEW050
      TEMPO 3109/3112 1SM BR
     FM311200 33005KT P6SM OVC050
     FM311500 35015G28KT P6SM SCT050 BKN100=

USA.gov is the U.S. government's official web portal to all federal, state and local government web resources and services.